F/V Oceanie — FVBW — position and weather

sailwx.info

Track history (hours):
 
Tides and Currents Weather Stations Pressure Air Temp Water Temp Dewpoint Dewpoint Depression Visibility Wind Speed Wind Dir Waves Ship Positions

F/V Oceanie

Last reported at 2015-Jul-28 12:34 UTC. Time now 2015-Jul-28 13:23 UTC.
Position N 47°27' W 003°29'.

Length 16 m.

Type: Fishing. MMSI: 228370000.

Date/timePositionNaut miles runAvg speedWind from/ knotsBaromVisibWave heightAir tempDewpointWater temp
2015-Jul-28 12:34N 47°27' W 003°29'1 1.3
2015-Jul-28 11:33N 47°27' W 003°30'2 1.7
2015-Jul-28 10:34N 47°26' W 003°29'2 2.2
2015-Jul-28 09:34N 47°28' W 003°29'3 3.4
2015-Jul-28 08:34N 47°25' W 003°31'2 2.1
2015-Jul-28 07:33N 47°24' W 003°28'4 3.9
2015-Jul-28 06:34N 47°28' W 003°30'4 4.0
2015-Jul-28 05:33N 47°32' W 003°31'4 4.0
2015-Jul-28 04:33N 47°35' W 003°34'2 2.2
2015-Jul-28 03:33N 47°34' W 003°32'1 1.4
2015-Jul-28 02:34N 47°33' W 003°34'4 4.4
2015-Jul-28 01:34N 47°34' W 003°27'6 5.8
2015-Jul-28 00:33N 47°39' W 003°22'5 4.6
2015-Jul-27 23:34N 47°44' W 003°22'6 6.2
2015-Jul-27 22:34N 47°38' W 003°22'8 7.5
2015-Jul-27 21:33N 47°31' W 003°28'6 6.2
2015-Jul-27 20:33N 47°25' W 003°27'4 3.8
2015-Jul-27 19:33N 47°21' W 003°25'1 0.9
2015-Jul-27 18:33N 47°21' W 003°27'0 0.4
2015-Jul-27 17:33N 47°20' W 003°26'1 0.6
2015-Jul-27 16:33N 47°21' W 003°27'4 3.6
2015-Jul-27 15:34N 47°24' W 003°28'3 3.1
2015-Jul-27 14:34N 47°26' W 003°32'1 1.0
2015-Jul-27 13:34N 47°26' W 003°34'0 0.3
2015-Jul-27 12:33N 47°26' W 003°34'0 0.3
2015-Jul-27 11:33N 47°26' W 003°33'3 3.1
2015-Jul-27 10:33N 47°28' W 003°31'3 3.4
2015-Jul-27 09:33N 47°25' W 003°29'1 0.6
2015-Jul-27 08:34N 47°25' W 003°29'3 2.9
2015-Jul-27 07:33N 47°26' W 003°33'0 0.2
2015-Jul-27 06:33N 47°26' W 003°33'3 3.1
2015-Jul-27 05:34N 47°23' W 003°30'3 3.2
2015-Jul-27 04:34N 47°26' W 003°33'4 4.4
2015-Jul-27 03:33N 47°30' W 003°29'7 6.5
2015-Jul-27 02:34N 47°35' W 003°23'7 7.2
2015-Jul-27 01:34N 47°42' W 003°22'1 0.0
2015-Jul-25 00:33N 47°44' W 003°22'0 0.0
2015-Jul-24 23:33N 47°44' W 003°22'6 6.0
2015-Jul-24 22:33N 47°38' W 003°22'7 7.5
2015-Jul-24 21:33N 47°31' W 003°27'5 4.5
2015-Jul-24 20:33N 47°28' W 003°32'3 2.5
2015-Jul-24 19:33N 47°25' W 003°33'0 0.3
2015-Jul-24 18:33N 47°25' W 003°34'1 1.2
2015-Jul-24 17:33N 47°24' W 003°32'1 0.8
2015-Jul-24 16:33N 47°25' W 003°32'0 0.1
2015-Jul-24 15:33N 47°25' W 003°32'3 3.5
2015-Jul-24 14:33N 47°27' W 003°36'1 1.4
2015-Jul-24 13:33N 47°27' W 003°34'4 3.5
2015-Jul-24 12:33N 47°25' W 003°30'3 3.5
2015-Jul-24 11:33N 47°21' W 003°28'2 1.6
2015-Jul-24 10:33N 47°21' W 003°25'3 3.5
2015-Jul-24 09:33N 47°24' W 003°29'4 3.8
2015-Jul-24 08:33N 47°26' W 003°34'3 2.8
2015-Jul-24 07:33N 47°29' W 003°34'4 4.0
2015-Jul-24 06:33N 47°32' W 003°31'3 3.5
2015-Jul-24 05:33N 47°35' W 003°34'0 0.4
2015-Jul-24 04:33N 47°35' W 003°33'2 2.4
2015-Jul-24 03:33N 47°33' W 003°31'5 4.7
2015-Jul-24 02:33N 47°35' W 003°24'6 6.1
2015-Jul-24 01:33N 47°41' W 003°22'3 2.8
2015-Jul-24 00:33N 47°44' W 003°22'0 0.2
2015-Jul-23 23:33N 47°44' W 003°22'9 8.7
2015-Jul-23 22:33N 47°35' W 003°22'9 9.0
2015-Jul-23 21:33N 47°26' W 003°21'9 8.9
2015-Jul-23 20:33N 47°17' W 003°19'9 9.1
2015-Jul-23 19:33N 47°08' W 003°17'9 9.4
2015-Jul-23 18:33N 46°59' W 003°16'10 9.4
2015-Jul-23 17:30N 46°49' W 003°14'10 9.2
2015-Jul-23 16:23N 46°39' W 003°13'11 0.4
2015-Jul-22 11:11N 46°28' W 003°09'42 4.8
2015-Jul-22 02:24N 47°09' W 003°17'9 9.2
2015-Jul-22 01:27N 47°18' W 003°19'8 9.1
2015-Jul-22 00:33N 47°26' W 003°21'9 9.3
2015-Jul-21 23:33N 47°35' W 003°23'9 8.5
2015-Jul-21 22:33N 47°44' W 003°22'5 5.0
2015-Jul-21 21:33N 47°39' W 003°23'9 8.6
2015-Jul-21 20:33N 47°30' W 003°23'9 8.8
2015-Jul-21 19:33N 47°21' W 003°23'4 4.0
2015-Jul-21 18:33N 47°18' W 003°21'1 1.0
2015-Jul-21 17:33N 47°18' W 003°22'0 0.4
2015-Jul-21 16:33N 47°18' W 003°22'1 1.3
2015-Jul-21 15:33N 47°18' W 003°24'2 1.8
2015-Jul-21 14:33N 47°18' W 003°21'0 0.4
2015-Jul-21 13:33N 47°18' W 003°21'1 0.5
2015-Jul-21 12:33N 47°17' W 003°20'1 0.7
2015-Jul-21 11:33N 47°17' W 003°19'3 3.2
2015-Jul-21 10:33N 47°18' W 003°24'1 1.4
2015-Jul-21 09:33N 47°18' W 003°22'1 0.7
2015-Jul-21 08:33N 47°18' W 003°21'2 2.0
2015-Jul-21 07:33N 47°16' W 003°18'3 3.2
2015-Jul-21 06:33N 47°18' W 003°22'1 1.0
2015-Jul-21 05:33N 47°18' W 003°24'3 3.4
2015-Jul-21 04:33N 47°16' W 003°19'3 3.0
2015-Jul-21 03:33N 47°18' W 003°23'6 5.7
2015-Jul-21 02:33N 47°24' W 003°23'8 7.8
2015-Jul-21 01:33N 47°32' W 003°22'8 8.0
2015-Jul-21 00:33N 47°40' W 003°22'4 3.8
2015-Jul-20 23:33N 47°44' W 003°22'8 8.0
2015-Jul-20 22:33N 47°36' W 003°23'8 8.3
2015-Jul-20 21:33N 47°27' W 003°23'8 7.6
2015-Jul-20 20:33N 47°20' W 003°23'3 3.4
2015-Jul-20 19:33N 47°17' W 003°21'1 0.9
2015-Jul-20 18:33N 47°17' W 003°22'1 0.8
2015-Jul-20 17:33N 47°17' W 003°20'1 0.6
2015-Jul-20 16:33N 47°17' W 003°21'1 0.7
2015-Jul-20 15:33N 47°18' W 003°22'3 3.2
2015-Jul-20 14:33N 47°16' W 003°18'3 3.0
2015-Jul-20 13:33N 47°18' W 003°21'1 1.3
2015-Jul-20 12:33N 47°17' W 003°20'0 0.3
2015-Jul-20 11:33N 47°17' W 003°20'2 2.4
2015-Jul-20 10:33N 47°18' W 003°23'3 3.0
2015-Jul-20 09:33N 47°17' W 003°19'3 2.5
2015-Jul-20 08:33N 47°18' W 003°22'4 3.6
2015-Jul-20 07:33N 47°16' W 003°18'4 3.5
2015-Jul-20 06:33N 47°18' W 003°22'2 2.3
2015-Jul-20 05:33N 47°16' W 003°19'0 0.4
2015-Jul-20 04:33N 47°17' W 003°20'4 4.5
2015-Jul-20 03:33N 47°20' W 003°23'8 7.8
2015-Jul-20 02:33N 47°28' W 003°21'8 7.8
2015-Jul-20 01:33N 47°36' W 003°22'8 7.6
2015-Jul-20 00:33N 47°43' W 003°22'  
Track history (hours):
 
Tides and Currents Weather Stations Pressure Air Temp Water Temp Dewpoint Dewpoint Depression Visibility Wind Speed Wind Dir Waves Ship Positions

F/V Oceanie

Last reported at 2015-Jul-28 12:34 UTC. Time now 2015-Jul-28 13:23 UTC.
Position N 47°27' W 003°29'.

Length 16 m.

Type: Fishing. MMSI: 228370000.

Date/timePositionNaut miles runAvg speedWind from/ knotsBaromVisibWave heightAir tempDewpointWater temp
2015-Jul-28 12:34N 47°27' W 003°29'1 1.3
2015-Jul-28 11:33N 47°27' W 003°30'2 1.7
2015-Jul-28 10:34N 47°26' W 003°29'2 2.2
2015-Jul-28 09:34N 47°28' W 003°29'3 3.4
2015-Jul-28 08:34N 47°25' W 003°31'2 2.1
2015-Jul-28 07:33N 47°24' W 003°28'4 3.9
2015-Jul-28 06:34N 47°28' W 003°30'4 4.0
2015-Jul-28 05:33N 47°32' W 003°31'4 4.0
2015-Jul-28 04:33N 47°35' W 003°34'2 2.2
2015-Jul-28 03:33N 47°34' W 003°32'1 1.4
2015-Jul-28 02:34N 47°33' W 003°34'4 4.4
2015-Jul-28 01:34N 47°34' W 003°27'6 5.8
2015-Jul-28 00:33N 47°39' W 003°22'5 4.6
2015-Jul-27 23:34N 47°44' W 003°22'6 6.2
2015-Jul-27 22:34N 47°38' W 003°22'8 7.5
2015-Jul-27 21:33N 47°31' W 003°28'6 6.2
2015-Jul-27 20:33N 47°25' W 003°27'4 3.8
2015-Jul-27 19:33N 47°21' W 003°25'1 0.9
2015-Jul-27 18:33N 47°21' W 003°27'0 0.4
2015-Jul-27 17:33N 47°20' W 003°26'1 0.6
2015-Jul-27 16:33N 47°21' W 003°27'4 3.6
2015-Jul-27 15:34N 47°24' W 003°28'3 3.1
2015-Jul-27 14:34N 47°26' W 003°32'1 1.0
2015-Jul-27 13:34N 47°26' W 003°34'0 0.3
2015-Jul-27 12:33N 47°26' W 003°34'0 0.3
2015-Jul-27 11:33N 47°26' W 003°33'3 3.1
2015-Jul-27 10:33N 47°28' W 003°31'3 3.4
2015-Jul-27 09:33N 47°25' W 003°29'1 0.6
2015-Jul-27 08:34N 47°25' W 003°29'3 2.9
2015-Jul-27 07:33N 47°26' W 003°33'0 0.2
2015-Jul-27 06:33N 47°26' W 003°33'3 3.1
2015-Jul-27 05:34N 47°23' W 003°30'3 3.2
2015-Jul-27 04:34N 47°26' W 003°33'4 4.4
2015-Jul-27 03:33N 47°30' W 003°29'7 6.5
2015-Jul-27 02:34N 47°35' W 003°23'7 7.2
2015-Jul-27 01:34N 47°42' W 003°22'1 0.0
2015-Jul-25 00:33N 47°44' W 003°22'0 0.0
2015-Jul-24 23:33N 47°44' W 003°22'6 6.0
2015-Jul-24 22:33N 47°38' W 003°22'7 7.5
2015-Jul-24 21:33N 47°31' W 003°27'5 4.5
2015-Jul-24 20:33N 47°28' W 003°32'3 2.5
2015-Jul-24 19:33N 47°25' W 003°33'0 0.3
2015-Jul-24 18:33N 47°25' W 003°34'1 1.2
2015-Jul-24 17:33N 47°24' W 003°32'1 0.8
2015-Jul-24 16:33N 47°25' W 003°32'0 0.1
2015-Jul-24 15:33N 47°25' W 003°32'3 3.5
2015-Jul-24 14:33N 47°27' W 003°36'1 1.4
2015-Jul-24 13:33N 47°27' W 003°34'4 3.5
2015-Jul-24 12:33N 47°25' W 003°30'3 3.5
2015-Jul-24 11:33N 47°21' W 003°28'2 1.6
2015-Jul-24 10:33N 47°21' W 003°25'3 3.5
2015-Jul-24 09:33N 47°24' W 003°29'4 3.8
2015-Jul-24 08:33N 47°26' W 003°34'3 2.8
2015-Jul-24 07:33N 47°29' W 003°34'4 4.0
2015-Jul-24 06:33N 47°32' W 003°31'3 3.5
2015-Jul-24 05:33N 47°35' W 003°34'0 0.4
2015-Jul-24 04:33N 47°35' W 003°33'2 2.4
2015-Jul-24 03:33N 47°33' W 003°31'5 4.7
2015-Jul-24 02:33N 47°35' W 003°24'6 6.1
2015-Jul-24 01:33N 47°41' W 003°22'3 2.8
2015-Jul-24 00:33N 47°44' W 003°22'0 0.2
2015-Jul-23 23:33N 47°44' W 003°22'9 8.7
2015-Jul-23 22:33N 47°35' W 003°22'9 9.0
2015-Jul-23 21:33N 47°26' W 003°21'9 8.9
2015-Jul-23 20:33N 47°17' W 003°19'9 9.1
2015-Jul-23 19:33N 47°08' W 003°17'9 9.4
2015-Jul-23 18:33N 46°59' W 003°16'10 9.4
2015-Jul-23 17:30N 46°49' W 003°14'10 9.2
2015-Jul-23 16:23N 46°39' W 003°13'11 0.4
2015-Jul-22 11:11N 46°28' W 003°09'42 4.8
2015-Jul-22 02:24N 47°09' W 003°17'9 9.2
2015-Jul-22 01:27N 47°18' W 003°19'8 9.1
2015-Jul-22 00:33N 47°26' W 003°21'9 9.3
2015-Jul-21 23:33N 47°35' W 003°23'9 8.5
2015-Jul-21 22:33N 47°44' W 003°22'5 5.0
2015-Jul-21 21:33N 47°39' W 003°23'9 8.6
2015-Jul-21 20:33N 47°30' W 003°23'9 8.8
2015-Jul-21 19:33N 47°21' W 003°23'4 4.0
2015-Jul-21 18:33N 47°18' W 003°21'1 1.0
2015-Jul-21 17:33N 47°18' W 003°22'0 0.4
2015-Jul-21 16:33N 47°18' W 003°22'1 1.3
2015-Jul-21 15:33N 47°18' W 003°24'2 1.8
2015-Jul-21 14:33N 47°18' W 003°21'0 0.4
2015-Jul-21 13:33N 47°18' W 003°21'1 0.5
2015-Jul-21 12:33N 47°17' W 003°20'1 0.7
2015-Jul-21 11:33N 47°17' W 003°19'3 3.2
2015-Jul-21 10:33N 47°18' W 003°24'1 1.4
2015-Jul-21 09:33N 47°18' W 003°22'1 0.7
2015-Jul-21 08:33N 47°18' W 003°21'2 2.0
2015-Jul-21 07:33N 47°16' W 003°18'3 3.2
2015-Jul-21 06:33N 47°18' W 003°22'1 1.0
2015-Jul-21 05:33N 47°18' W 003°24'3 3.4
2015-Jul-21 04:33N 47°16' W 003°19'3 3.0
2015-Jul-21 03:33N 47°18' W 003°23'6 5.7
2015-Jul-21 02:33N 47°24' W 003°23'8 7.8
2015-Jul-21 01:33N 47°32' W 003°22'8 8.0
2015-Jul-21 00:33N 47°40' W 003°22'4 3.8
2015-Jul-20 23:33N 47°44' W 003°22'8 8.0
2015-Jul-20 22:33N 47°36' W 003°23'8 8.3
2015-Jul-20 21:33N 47°27' W 003°23'8 7.6
2015-Jul-20 20:33N 47°20' W 003°23'3 3.4
2015-Jul-20 19:33N 47°17' W 003°21'1 0.9
2015-Jul-20 18:33N 47°17' W 003°22'1 0.8
2015-Jul-20 17:33N 47°17' W 003°20'1 0.6
2015-Jul-20 16:33N 47°17' W 003°21'1 0.7
2015-Jul-20 15:33N 47°18' W 003°22'3 3.2
2015-Jul-20 14:33N 47°16' W 003°18'3 3.0
2015-Jul-20 13:33N 47°18' W 003°21'1 1.3
2015-Jul-20 12:33N 47°17' W 003°20'0 0.3
2015-Jul-20 11:33N 47°17' W 003°20'2 2.4
2015-Jul-20 10:33N 47°18' W 003°23'3 3.0
2015-Jul-20 09:33N 47°17' W 003°19'3 2.5
2015-Jul-20 08:33N 47°18' W 003°22'4 3.6
2015-Jul-20 07:33N 47°16' W 003°18'4 3.5
2015-Jul-20 06:33N 47°18' W 003°22'2 2.3
2015-Jul-20 05:33N 47°16' W 003°19'0 0.4
2015-Jul-20 04:33N 47°17' W 003°20'4 4.5
2015-Jul-20 03:33N 47°20' W 003°23'8 7.8
2015-Jul-20 02:33N 47°28' W 003°21'8 7.8
2015-Jul-20 01:33N 47°36' W 003°22'8 7.6
2015-Jul-20 00:33N 47°43' W 003°22'  

Dump ship's entire track history